Time;durP1;ratioP1;P1;durP2;ratioP2;P2;SDS_P1;SDS_P2;PMS_P1;PMS_P2;Temp;Humidity;BMP_temperature;BMP_pressure;BME280_temperature;BME280_humidity;BME280_pressure;Samples;Min_cycle;Max_cycle;Signal;HPM_P1;HPM_P2
2022/09/26 00:02:18;;;;;;;1.23;1.13;;;22.80;67.00;;;;;;5113731;28;20430;-86
2022/09/26 00:04:45;;;;;;;1.30;1.17;;;22.80;67.10;;;;;;5113637;28;20446;-85
2022/09/26 00:07:12;;;;;;;1.20;1.10;;;22.80;67.00;;;;;;5113956;28;20874;-86
2022/09/26 00:09:39;;;;;;;1.53;1.17;;;22.80;67.00;;;;;;5113808;28;20435;-86
2022/09/26 00:12:06;;;;;;;1.20;1.10;;;22.80;67.00;;;;;;5114028;28;20803;-86
2022/09/26 00:14:33;;;;;;;0.90;0.80;;;22.80;67.00;;;;;;5113677;28;20461;-86
2022/09/26 00:17:00;;;;;;;1.00;0.90;;;22.80;67.00;;;;;;5113647;28;21022;-86
2022/09/26 00:19:28;;;;;;;1.10;1.00;;;22.90;67.10;;;;;;5114008;28;20582;-86
2022/09/26 00:21:55;;;;;;;1.10;1.00;;;22.80;67.00;;;;;;5113936;28;20437;-86
2022/09/26 00:24:21;;;;;;;1.10;1.00;;;22.80;66.90;;;;;;5114058;28;20455;-86
2022/09/26 00:26:48;;;;;;;1.10;1.00;;;22.80;66.90;;;;;;5113545;28;20435;-86
2022/09/26 00:29:15;;;;;;;1.00;0.90;;;22.80;66.90;;;;;;5113590;28;20431;-85
2022/09/26 00:31:44;;;;;;;1.50;1.10;;;22.80;66.90;;;;;;5113562;28;20439;-85
2022/09/26 00:34:12;;;;;;;1.20;1.10;;;22.80;66.90;;;;;;5113384;28;20430;-86
2022/09/26 00:36:40;;;;;;;1.07;0.97;;;22.80;66.90;;;;;;5113489;28;20489;-85
2022/09/26 00:39:08;;;;;;;1.20;1.10;;;22.80;66.90;;;;;;5113590;28;20839;-87
2022/09/26 00:41:35;;;;;;;1.10;1.00;;;22.80;66.90;;;;;;5113319;28;20434;-86
2022/09/26 00:44:03;;;;;;;1.00;0.90;;;22.80;66.90;;;;;;5113399;28;20445;-86
2022/09/26 00:46:35;;;;;;;1.10;1.00;;;22.80;66.90;;;;;;5113309;28;20443;-86
2022/09/26 00:49:14;;;;;;;1.00;0.90;;;22.80;66.90;;;;;;5113730;28;20435;-86
2022/09/26 00:51:47;;;;;;;1.00;0.90;;;22.80;66.80;;;;;;5112624;28;20446;-86
2022/09/26 00:54:17;;;;;;;1.40;1.30;;;22.80;66.80;;;;;;5092864;28;20448;-86
2022/09/26 00:56:47;;;;;;;1.10;1.00;;;22.80;66.70;;;;;;5092965;28;20479;-86
2022/09/26 00:59:21;;;;;;;1.20;1.10;;;22.80;66.70;;;;;;5093361;28;20435;-85
2022/09/26 01:01:48;;;;;;;1.13;1.00;;;23.00;67.00;;;;;;5116849;28;20934;-87
2022/09/26 01:04:16;;;;;;;1.10;0.90;;;22.80;66.80;;;;;;5116956;28;20447;-86
2022/09/26 01:06:48;;;;;;;0.97;0.87;;;22.90;67.00;;;;;;5117065;28;20934;-86
2022/09/26 01:09:15;;;;;;;1.10;1.00;;;22.80;66.70;;;;;;5117033;28;20438;-86
2022/09/26 01:11:43;;;;;;;1.27;1.10;;;22.80;66.80;;;;;;5116439;28;20462;-86
2022/09/26 01:14:12;;;;;;;1.30;1.20;;;22.80;66.80;;;;;;5116921;28;20485;-85
2022/09/26 01:16:41;;;;;;;1.20;1.10;;;22.80;66.80;;;;;;5116900;28;20474;-86
2022/09/26 01:19:18;;;;;;;1.20;1.10;;;22.80;66.70;;;;;;5116907;28;20466;-86
2022/09/26 01:22:14;;;;;;;1.20;1.00;;;22.80;66.70;;;;;;5116408;28;20446;-86
2022/09/26 01:24:57;;;;;;;1.10;1.00;;;22.80;66.70;;;;;;5116838;28;20459;-86
2022/09/26 01:27:44;;;;;;;1.20;1.10;;;22.80;66.70;;;;;;5116717;28;20443;-86
2022/09/26 01:30:14;;;;;;;1.10;1.00;;;22.80;66.70;;;;;;5116784;28;20453;-86
2022/09/26 01:33:20;;;;;;;0.90;0.80;;;22.70;66.70;;;;;;5116658;28;20453;-86
2022/09/26 01:36:15;;;;;;;1.00;0.90;;;22.80;66.70;;;;;;5101869;28;20459;-86
2022/09/26 01:38:51;;;;;;;1.00;0.80;;;22.70;66.60;;;;;;5116486;28;20503;-86
2022/09/26 01:41:32;;;;;;;0.90;0.80;;;22.80;66.80;;;;;;5116060;28;20442;-86
2022/09/26 01:44:14;;;;;;;1.00;0.90;;;22.70;66.70;;;;;;5116330;28;20504;-86
2022/09/26 01:46:48;;;;;;;0.97;0.80;;;22.70;66.70;;;;;;5116618;28;20435;-86
2022/09/26 01:49:22;;;;;;;1.13;1.03;;;22.80;66.80;;;;;;5115905;28;20484;-85
2022/09/26 01:51:58;;;;;;;1.87;1.13;;;22.70;66.60;;;;;;5115981;28;20786;-86
2022/09/26 01:54:28;;;;;;;1.07;0.97;;;22.80;66.70;;;;;;5116232;28;20549;-86
2022/09/26 01:56:58;;;;;;;1.20;1.10;;;22.70;66.60;;;;;;5116041;28;20489;-86
2022/09/26 01:59:30;;;;;;;1.00;0.90;;;22.80;66.70;;;;;;5115786;28;20443;-86
2022/09/26 02:02:06;;;;;;;1.10;1.00;;;22.70;66.60;;;;;;5116397;28;20442;-86
2022/09/26 02:04:37;;;;;;;1.03;0.93;;;22.70;66.60;;;;;;5115791;28;20431;-86
2022/09/26 02:07:10;;;;;;;1.10;1.00;;;22.70;66.60;;;;;;5115811;28;20557;-86
2022/09/26 02:09:42;;;;;;;1.10;1.00;;;22.70;66.60;;;;;;5115916;28;20446;-86
2022/09/26 02:12:14;;;;;;;0.97;0.87;;;22.70;66.60;;;;;;5114491;28;20437;-85
2022/09/26 02:14:43;;;;;;;1.10;1.00;;;22.70;66.60;;;;;;5115519;28;20439;-85
2022/09/26 02:17:16;;;;;;;1.20;1.00;;;22.70;66.60;;;;;;5116518;28;20487;-86
2022/09/26 02:19:50;;;;;;;1.10;0.93;;;22.80;66.70;;;;;;5115411;28;20474;-86
2022/09/26 02:22:17;;;;;;;1.20;1.10;;;22.80;66.60;;;;;;5115346;28;20442;-86
2022/09/26 02:24:44;;;;;;;1.00;0.90;;;22.70;66.50;;;;;;5115225;28;20794;-86
2022/09/26 02:27:11;;;;;;;1.10;0.80;;;22.70;66.50;;;;;;5115753;28;20450;-86
2022/09/26 02:29:38;;;;;;;1.00;0.90;;;22.70;66.50;;;;;;5115259;28;20439;-86
2022/09/26 02:32:14;;;;;;;1.10;1.00;;;22.70;66.50;;;;;;5115367;28;20435;-85
2022/09/26 02:34:44;;;;;;;1.10;1.00;;;22.80;66.60;;;;;;5115325;28;20443;-86
2022/09/26 02:37:13;;;;;;;1.00;0.90;;;22.70;66.50;;;;;;5115226;28;20494;-86
2022/09/26 02:39:41;;;;;;;1.00;0.90;;;22.70;66.50;;;;;;5115124;28;20971;-86
2022/09/26 02:42:17;;;;;;;1.00;0.90;;;22.70;66.50;;;;;;5115102;28;20439;-86
2022/09/26 02:45:09;;;;;;;0.80;0.70;;;22.80;66.60;;;;;;5115268;28;20525;-86
2022/09/26 02:48:08;;;;;;;1.00;0.90;;;22.70;66.50;;;;;;5114957;28;20435;-85
2022/09/26 02:50:55;;;;;;;1.30;0.97;;;22.80;66.60;;;;;;5107831;28;20447;-86
2022/09/26 02:53:41;;;;;;;1.10;0.90;;;22.70;66.50;;;;;;5115100;28;20473;-86
2022/09/26 02:56:16;;;;;;;0.97;0.90;;;22.70;66.50;;;;;;5114604;28;20442;-86
2022/09/26 02:58:53;;;;;;;2.10;1.00;;;22.70;66.50;;;;;;5114658;28;20817;-85
2022/09/26 03:01:27;;;;;;;1.00;0.90;;;22.70;66.50;;;;;;5114930;28;20439;-86
2022/09/26 03:03:59;;;;;;;1.10;1.00;;;22.70;66.50;;;;;;5114651;28;20491;-87
2022/09/26 03:06:33;;;;;;;0.80;0.80;;;22.70;66.50;;;;;;5114803;28;20435;-86
2022/09/26 03:09:03;;;;;;;1.07;0.97;;;22.70;66.50;;;;;;5115225;28;20794;-86
2022/09/26 03:11:32;;;;;;;1.10;1.00;;;22.70;66.50;;;;;;5114723;28;20492;-86
2022/09/26 03:13:59;;;;;;;1.00;0.90;;;22.70;66.50;;;;;;5114432;28;20443;-86
2022/09/26 03:16:29;;;;;;;1.00;0.90;;;22.70;66.50;;;;;;5114265;28;20475;-86
2022/09/26 03:19:02;;;;;;;0.90;0.80;;;22.70;66.50;;;;;;5114070;28;20475;-86
2022/09/26 03:21:31;;;;;;;1.20;1.10;;;22.70;66.40;;;;;;5113805;28;20439;-86
2022/09/26 03:23:58;;;;;;;0.93;0.83;;;22.70;66.50;;;;;;5114015;28;20962;-86
2022/09/26 03:26:27;;;;;;;1.10;1.00;;;22.70;66.50;;;;;;5114390;28;20441;-86
2022/09/26 03:28:55;;;;;;;1.07;0.93;;;22.90;66.70;;;;;;5114108;28;20435;-85
2022/09/26 03:31:24;;;;;;;0.80;0.80;;;22.70;66.40;;;;;;5113783;28;20443;-85
2022/09/26 03:33:51;;;;;;;0.93;0.80;;;22.70;66.50;;;;;;5114176;28;20446;-86
2022/09/26 03:36:18;;;;;;;0.90;0.80;;;22.70;66.40;;;;;;5114291;28;20431;-86
2022/09/26 03:38:46;;;;;;;0.80;0.77;;;22.70;66.40;;;;;;5113938;28;20471;-86
2022/09/26 03:41:13;;;;;;;0.90;0.80;;;22.70;66.40;;;;;;5114895;28;20449;-86
2022/09/26 03:43:42;;;;;;;1.20;1.10;;;22.70;66.50;;;;;;5114016;28;20443;-86
2022/09/26 03:46:11;;;;;;;1.00;0.90;;;22.70;66.40;;;;;;5114059;28;20957;-86
2022/09/26 03:48:38;;;;;;;2.63;0.93;;;22.70;66.40;;;;;;5114116;28;20451;-86
2022/09/26 03:51:07;;;;;;;0.80;0.70;;;22.70;66.40;;;;;;5113637;28;20445;-86
2022/09/26 03:53:34;;;;;;;0.90;0.80;;;22.70;66.50;;;;;;5113933;28;20465;-86
2022/09/26 03:56:07;;;;;;;1.00;0.90;;;22.70;66.40;;;;;;5113842;28;20442;-86
2022/09/26 03:58:34;;;;;;;0.90;0.80;;;22.70;66.40;;;;;;5113872;28;20489;-86
2022/09/26 04:01:06;;;;;;;1.00;0.90;;;22.70;66.40;;;;;;5113752;28;20439;-86
2022/09/26 04:03:34;;;;;;;1.00;0.80;;;22.70;66.40;;;;;;5113957;28;20441;-86
2022/09/26 04:06:02;;;;;;;0.97;0.87;;;22.70;66.40;;;;;;5113841;28;20468;-86
2022/09/26 04:08:29;;;;;;;1.00;0.90;;;22.70;66.40;;;;;;5113633;28;20492;-86
2022/09/26 04:11:01;;;;;;;1.10;1.00;;;22.70;66.40;;;;;;5113826;28;20482;-86
2022/09/26 04:13:30;;;;;;;1.00;0.90;;;22.70;66.40;;;;;;5113910;28;20484;-87
2022/09/26 04:15:57;;;;;;;0.87;0.80;;;22.70;66.40;;;;;;5113626;28;20940;-86
2022/09/26 04:18:24;;;;;;;1.00;0.80;;;22.70;66.40;;;;;;5113482;28;20490;-87
2022/09/26 04:20:57;;;;;;;0.80;0.80;;;22.70;66.40;;;;;;5113702;28;20447;-86
2022/09/26 04:23:24;;;;;;;1.03;0.90;;;22.70;66.40;;;;;;5113609;28;20466;-86
2022/09/26 04:25:50;;;;;;;0.80;0.70;;;22.70;66.40;;;;;;5113838;28;20439;-86
2022/09/26 04:28:17;;;;;;;1.30;1.10;;;22.70;66.40;;;;;;5113556;28;20442;-86
2022/09/26 04:30:45;;;;;;;0.80;0.70;;;22.70;66.40;;;;;;5113676;28;20446;-86
2022/09/26 04:33:12;;;;;;;1.30;0.90;;;22.70;66.40;;;;;;5113632;28;20435;-86
2022/09/26 04:35:39;;;;;;;1.10;0.93;;;22.70;66.30;;;;;;5116303;28;20458;-86
2022/09/26 04:38:07;;;;;;;1.00;0.90;;;22.70;66.30;;;;;;5117517;28;20490;-86
2022/09/26 04:40:34;;;;;;;0.97;0.87;;;22.70;66.30;;;;;;5117536;28;20513;-86
2022/09/26 04:43:01;;;;;;;1.00;0.80;;;22.80;66.50;;;;;;5117826;28;20791;-86
2022/09/26 04:45:27;;;;;;;1.00;0.90;;;22.70;66.30;;;;;;5116849;28;20952;-86
2022/09/26 04:47:55;;;;;;;1.10;0.90;;;22.80;66.50;;;;;;5117543;28;20446;-86
2022/09/26 04:50:23;;;;;;;0.90;0.80;;;22.70;66.30;;;;;;5117485;28;20446;-86
2022/09/26 04:52:50;;;;;;;1.10;0.80;;;22.70;66.40;;;;;;5117421;28;20479;-86
2022/09/26 04:55:17;;;;;;;0.90;0.80;;;22.70;66.30;;;;;;5117125;28;20442;-86
2022/09/26 04:57:44;;;;;;;1.10;1.00;;;22.70;66.30;;;;;;5117210;28;20482;-86
2022/09/26 05:00:12;;;;;;;1.10;1.00;;;22.70;66.30;;;;;;5116981;28;20439;-86
2022/09/26 05:02:39;;;;;;;1.00;0.80;;;22.70;66.30;;;;;;5117179;28;20453;-86
2022/09/26 05:05:08;;;;;;;1.00;0.90;;;22.70;67.20;;;;;;5116939;28;20490;-86
2022/09/26 05:07:39;;;;;;;1.40;0.77;;;22.70;66.30;;;;;;5117013;28;20453;-85
2022/09/26 05:10:09;;;;;;;1.53;1.00;;;22.70;66.30;;;;;;5116953;28;20461;-86
2022/09/26 05:12:38;;;;;;;1.00;0.80;;;22.70;66.30;;;;;;5117005;28;20468;-86
2022/09/26 05:15:07;;;;;;;1.00;0.90;;;22.70;66.30;;;;;;5116702;28;20520;-86
2022/09/26 05:17:34;;;;;;;0.93;0.83;;;22.70;66.30;;;;;;5117034;28;20489;-86
2022/09/26 05:20:02;;;;;;;0.90;0.80;;;22.70;66.30;;;;;;5116360;28;20463;-86
2022/09/26 05:22:31;;;;;;;0.97;0.87;;;22.70;66.30;;;;;;5116802;28;20538;-86
2022/09/26 05:27:42;;;;;;;0.90;0.80;;;22.70;66.30;;;;;;5116632;28;20418;-85
2022/09/26 05:30:11;;;;;;;1.30;1.07;;;22.60;66.20;;;;;;5116540;28;20435;-87
2022/09/26 05:32:37;;;;;;;2.40;0.77;;;22.70;66.30;;;;;;5116605;28;20436;-86
2022/09/26 05:35:05;;;;;;;1.00;0.90;;;22.70;66.30;;;;;;5116402;28;20519;-86
2022/09/26 05:37:33;;;;;;;0.90;0.70;;;22.70;66.20;;;;;;5116188;28;20479;-87
2022/09/26 05:42:45;;;;;;;1.00;0.90;;;22.70;66.20;;;;;;5116355;28;20878;-89
2022/09/26 05:45:14;;;;;;;0.97;0.87;;;22.70;66.30;;;;;;5116152;28;20436;-87
2022/09/26 05:47:41;;;;;;;1.13;1.03;;;22.70;66.40;;;;;;5116069;28;20958;-86
2022/09/26 05:50:09;;;;;;;2.10;0.90;;;22.70;66.40;;;;;;5116140;28;20443;-87
2022/09/26 05:52:39;;;;;;;4.70;1.20;;;22.70;66.50;;;;;;5116110;28;20795;-86
2022/09/26 05:55:06;;;;;;;0.80;0.80;;;22.70;66.60;;;;;;5116333;28;20541;-85
2022/09/26 05:57:33;;;;;;;0.93;0.87;;;22.70;66.70;;;;;;5116347;28;20482;-84
2022/09/26 06:00:01;;;;;;;1.00;0.90;;;22.60;66.70;;;;;;5115932;28;20431;-84
2022/09/26 06:02:28;;;;;;;2.03;1.00;;;22.60;66.60;;;;;;5115617;28;20972;-83
2022/09/26 06:04:55;;;;;;;0.83;0.70;;;22.60;66.60;;;;;;5115747;28;20458;-84
2022/09/26 06:07:22;;;;;;;1.00;0.70;;;22.70;67.50;;;;;;5115399;28;20443;-84
2022/09/26 06:09:50;;;;;;;0.83;0.80;;;22.70;66.60;;;;;;5115349;28;20435;-84
2022/09/26 06:12:18;;;;;;;2.60;1.10;;;22.70;66.60;;;;;;5115276;28;20435;-84
2022/09/26 06:14:45;;;;;;;6.13;1.10;;;22.70;66.70;;;;;;5114762;28;20459;-84
2022/09/26 06:17:12;;;;;;;0.97;0.87;;;22.70;66.70;;;;;;5115283;28;20438;-84
2022/09/26 06:19:39;;;;;;;1.20;0.87;;;22.70;66.70;;;;;;5115441;28;20479;-83
2022/09/26 06:22:06;;;;;;;1.10;1.00;;;22.70;66.70;;;;;;5111884;28;20555;-84
2022/09/26 06:24:33;;;;;;;2.47;1.10;;;22.70;66.70;;;;;;5115695;28;20601;-84
2022/09/26 06:27:01;;;;;;;0.90;0.80;;;22.70;66.70;;;;;;5115205;28;20439;-84
2022/09/26 06:29:28;;;;;;;1.10;1.00;;;22.70;66.70;;;;;;5115549;28;20445;-84
2022/09/26 06:31:55;;;;;;;1.40;1.17;;;22.70;66.70;;;;;;5115418;28;20443;-84
2022/09/26 06:34:22;;;;;;;1.10;0.70;;;22.70;66.80;;;;;;5115360;28;20446;-84
2022/09/26 06:36:48;;;;;;;2.70;0.80;;;22.70;66.70;;;;;;5115218;28;20499;-84
2022/09/26 06:39:15;;;;;;;2.40;1.00;;;22.80;66.90;;;;;;5114861;28;20823;-84
2022/09/26 06:41:42;;;;;;;1.20;1.10;;;22.70;66.70;;;;;;5114904;28;20439;-84
2022/09/26 06:44:10;;;;;;;1.03;0.70;;;22.70;66.60;;;;;;5115087;28;20441;-84
2022/09/26 06:46:37;;;;;;;1.00;0.90;;;22.70;67.50;;;;;;5115295;28;20461;-84
2022/09/26 06:49:05;;;;;;;1.10;1.00;;;22.70;66.60;;;;;;5115180;28;20427;-84
2022/09/26 06:51:32;;;;;;;1.10;0.90;;;22.70;66.50;;;;;;5114773;28;20443;-84
2022/09/26 06:53:59;;;;;;;3.10;0.90;;;22.70;66.60;;;;;;5114770;28;20447;-84
2022/09/26 06:56:26;;;;;;;1.67;0.83;;;22.70;66.60;;;;;;5115116;28;20431;-85
2022/09/26 06:58:53;;;;;;;2.03;1.10;;;22.70;66.60;;;;;;5113828;28;20985;-84
2022/09/26 07:01:21;;;;;;;1.40;0.90;;;22.80;66.70;;;;;;5114573;28;20450;-85
2022/09/26 07:03:48;;;;;;;3.07;1.03;;;22.90;66.90;;;;;;5113891;28;20454;-84
2022/09/26 07:06:16;;;;;;;1.90;1.33;;;22.70;66.50;;;;;;5113701;28;20812;-84
2022/09/26 07:08:43;;;;;;;5.70;2.30;;;22.60;66.00;;;;;;5114206;28;20809;-84
2022/09/26 07:11:10;;;;;;;6.20;2.87;;;22.70;65.50;;;;;;5114285;28;20434;-84
2022/09/26 07:13:37;;;;;;;10.17;2.90;;;22.60;64.80;;;;;;5114103;28;20942;-84
2022/09/26 07:16:05;;;;;;;5.57;2.23;;;22.60;64.30;;;;;;5114559;28;20454;-84
2022/09/26 07:18:33;;;;;;;3.77;2.27;;;22.50;63.90;;;;;;5113829;28;20494;-84
2022/09/26 07:21:03;;;;;;;1.57;1.33;;;22.50;63.80;;;;;;5114295;28;20431;-84
2022/09/26 07:23:30;;;;;;;1.83;1.20;;;22.50;64.20;;;;;;5113379;28;20818;-84
2022/09/26 07:25:57;;;;;;;5.57;1.70;;;22.60;65.20;;;;;;5113388;28;20439;-84
2022/09/26 07:28:25;;;;;;;2.57;1.23;;;22.60;65.50;;;;;;5113569;28;20942;-84
2022/09/26 07:30:55;;;;;;;1.30;1.20;;;22.60;65.80;;;;;;5113386;28;20987;-84
2022/09/26 07:33:23;;;;;;;4.27;1.63;;;22.70;65.90;;;;;;5112632;28;20435;-84
2022/09/26 07:35:51;;;;;;;2.10;1.47;;;22.60;66.00;;;;;;5113878;28;20439;-84
2022/09/26 07:38:18;;;;;;;1.10;0.93;;;22.60;66.00;;;;;;5113817;28;20493;-84
2022/09/26 07:40:44;;;;;;;1.73;0.90;;;22.60;66.10;;;;;;5113889;28;20443;-84
2022/09/26 07:43:11;;;;;;;3.23;0.93;;;22.60;66.10;;;;;;5113606;28;20439;-84
2022/09/26 07:51:09;;;;;;;1.70;1.27;;;22.60;66.10;;;;;;5113883;28;20802;-84
2022/09/26 07:53:37;;;;;;;1.40;1.17;;;22.60;66.10;;;;;;5113584;28;20482;-84
2022/09/26 07:56:09;;;;;;;1.50;1.23;;;22.60;66.10;;;;;;5113601;28;20438;-84
2022/09/26 07:58:38;;;;;;;3.03;1.40;;;22.70;66.20;;;;;;5113484;28;20487;-84
2022/09/26 08:01:06;;;;;;;2.23;1.30;;;22.60;66.10;;;;;;5113525;28;20918;-84
2022/09/26 08:03:33;;;;;;;2.20;1.20;;;22.60;66.10;;;;;;5109806;28;20435;-88
2022/09/26 08:06:01;;;;;;;2.30;1.03;;;22.60;66.10;;;;;;5113716;28;21013;-86
2022/09/26 08:08:30;;;;;;;7.23;1.13;;;22.80;66.30;;;;;;5112149;28;20440;-83
2022/09/26 08:10:57;;;;;;;1.67;1.00;;;22.70;66.10;;;;;;5117799;28;20427;-84
2022/09/26 08:13:25;;;;;;;2.77;1.10;;;22.70;66.20;;;;;;5117952;28;20439;-86
2022/09/26 08:15:52;;;;;;;3.63;1.00;;;22.70;66.20;;;;;;5117627;28;20447;-86
2022/09/26 08:18:20;;;;;;;1.83;1.10;;;22.80;66.20;;;;;;5117473;28;20489;-85
2022/09/26 08:20:46;;;;;;;2.03;1.37;;;22.70;66.10;;;;;;5117566;28;20446;-86
2022/09/26 08:23:14;;;;;;;1.10;1.00;;;22.70;66.20;;;;;;5117345;28;20980;-86
2022/09/26 08:25:42;;;;;;;1.20;0.90;;;22.70;66.10;;;;;;5117442;28;20499;-85
2022/09/26 08:28:11;;;;;;;1.27;1.17;;;22.70;66.10;;;;;;5117405;28;20439;-86
2022/09/26 08:30:38;;;;;;;2.43;1.40;;;22.70;66.20;;;;;;5117344;28;20458;-85
2022/09/26 08:33:06;;;;;;;5.77;1.43;;;22.80;66.30;;;;;;5117280;28;20531;-86
2022/09/26 08:35:37;;;;;;;1.30;1.20;;;22.70;66.20;;;;;;5117435;28;20504;-86
2022/09/26 08:38:05;;;;;;;1.70;1.40;;;22.70;66.10;;;;;;5117262;28;20485;-85
2022/09/26 08:40:37;;;;;;;0.90;0.80;;;22.70;66.30;;;;;;5117292;28;20488;-86
2022/09/26 08:43:18;;;;;;;1.50;1.13;;;22.70;66.20;;;;;;5117148;28;20445;-86
2022/09/26 08:46:31;;;;;;;3.13;1.10;;;22.70;66.20;;;;;;5117318;28;20936;-85
2022/09/26 08:49:21;;;;;;;1.50;1.20;;;22.70;66.30;;;;;;5117074;28;20446;-86
2022/09/26 08:51:50;;;;;;;1.10;1.00;;;22.70;67.10;;;;;;5117072;28;20511;-85
2022/09/26 08:54:22;;;;;;;1.47;1.10;;;22.70;66.30;;;;;;5117145;28;20454;-93
2022/09/26 08:56:52;;;;;;;2.53;1.20;;;22.70;67.10;;;;;;5117361;28;20435;-87
2022/09/26 08:59:28;;;;;;;1.23;1.13;;;22.70;66.20;;;;;;5116792;28;20474;-92
2022/09/26 09:01:58;;;;;;;1.83;1.10;;;22.70;66.20;;;;;;5117674;28;20442;-92
2022/09/26 09:04:35;;;;;;;6.20;1.03;;;22.70;66.20;;;;;;5117615;28;20435;-90
2022/09/26 09:07:11;;;;;;;3.07;1.20;;;22.70;66.30;;;;;;5117590;28;20449;-93
2022/09/26 09:09:39;;;;;;;1.30;1.17;;;22.70;66.20;;;;;;5116844;28;20445;-89
2022/09/26 09:12:14;;;;;;;1.30;1.20;;;22.70;66.30;;;;;;5115383;28;20439;-90
2022/09/26 09:14:57;;;;;;;2.23;1.00;;;22.80;66.40;;;;;;5126369;28;20422;-93
2022/09/26 09:17:33;;;;;;;0.93;0.83;;;22.70;66.30;;;;;;5121247;28;20438;-93
2022/09/26 09:20:11;;;;;;;1.13;1.03;;;22.80;66.50;;;;;;5116134;28;20494;-93
2022/09/26 09:22:58;;;;;;;1.00;0.90;;;22.70;66.30;;;;;;5117176;28;20433;-92
2022/09/26 09:25:31;;;;;;;1.07;0.90;;;22.70;66.30;;;;;;5117277;28;20794;-93
2022/09/26 09:28:19;;;;;;;1.43;1.00;;;22.70;66.40;;;;;;5117588;28;20434;-87
2022/09/26 09:30:50;;;;;;;1.10;1.00;;;22.70;66.30;;;;;;5117789;28;20427;-91
2022/09/26 09:33:20;;;;;;;1.90;1.23;;;22.70;66.60;;;;;;5117629;28;20427;-87
2022/09/26 09:35:49;;;;;;;1.20;0.90;;;22.70;66.90;;;;;;5117413;28;20438;-86
2022/09/26 09:38:19;;;;;;;1.40;1.30;;;22.70;68.00;;;;;;5114988;28;20967;-86
2022/09/26 09:40:53;;;;;;;0.80;0.80;;;22.70;67.40;;;;;;5115868;28;20442;-85
2022/09/26 09:43:26;;;;;;;1.10;0.97;;;22.70;67.40;;;;;;5116560;28;20474;-85
2022/09/26 09:46:01;;;;;;;1.40;1.00;;;22.70;67.40;;;;;;5116216;28;20453;-83
2022/09/26 09:48:28;;;;;;;1.23;1.13;;;22.70;67.40;;;;;;5116315;28;20435;-82
2022/09/26 09:51:07;;;;;;;1.10;1.00;;;22.70;67.60;;;;;;5115561;28;20944;-83
2022/09/26 09:53:56;;;;;;;1.87;0.90;;;22.70;67.70;;;;;;5115525;28;20455;-83
2022/09/26 09:56:31;;;;;;;1.37;1.27;;;22.70;67.70;;;;;;5113293;28;20454;-83
2022/09/26 09:59:09;;;;;;;1.60;1.00;;;22.70;67.70;;;;;;5115689;28;20482;-82
2022/09/26 10:01:40;;;;;;;1.53;1.00;;;22.70;67.60;;;;;;5114767;28;20434;-82
2022/09/26 10:04:19;;;;;;;1.30;1.20;;;22.70;67.60;;;;;;5115683;28;20431;-82
2022/09/26 10:06:47;;;;;;;1.80;1.40;;;22.70;67.50;;;;;;5115962;28;20443;-82
2022/09/26 10:09:20;;;;;;;1.63;1.20;;;22.70;67.50;;;;;;5115543;28;20439;-82
2022/09/26 10:11:47;;;;;;;1.30;1.07;;;22.70;67.60;;;;;;5115489;28;20447;-83
2022/09/26 10:14:19;;;;;;;1.10;0.90;;;22.70;68.40;;;;;;5115406;28;20435;-82
2022/09/26 10:17:17;;;;;;;1.63;1.10;;;22.70;67.40;;;;;;5115502;28;20481;-83
2022/09/26 10:19:43;;;;;;;1.23;1.00;;;22.70;67.20;;;;;;5094461;28;20490;-83
2022/09/26 10:22:17;;;;;;;1.10;1.00;;;22.70;67.30;;;;;;5115110;28;20435;-83
2022/09/26 10:24:47;;;;;;;0.97;0.90;;;22.70;67.20;;;;;;5115323;28;20541;-82
2022/09/26 10:27:21;;;;;;;1.10;1.00;;;22.70;67.10;;;;;;5115159;28;20922;-82
2022/09/26 10:29:56;;;;;;;0.97;0.87;;;22.70;67.00;;;;;;5115397;28;20469;-83
2022/09/26 10:32:24;;;;;;;0.87;0.80;;;22.70;67.00;;;;;;5114054;28;20445;-83
2022/09/26 10:35:06;;;;;;;1.10;1.00;;;22.70;67.10;;;;;;5114846;28;20442;-83
2022/09/26 10:37:37;;;;;;;1.50;1.40;;;22.70;67.10;;;;;;5115009;28;20439;-83
2022/09/26 10:43:35;;;;;;;1.20;1.10;;;22.80;67.20;;;;;;5114490;28;20932;-84
2022/09/26 10:46:05;;;;;;;2.83;1.30;;;22.70;67.10;;;;;;5079148;28;20447;-84
2022/09/26 10:48:47;;;;;;;1.10;1.00;;;22.70;67.40;;;;;;5114953;28;20453;-84
2022/09/26 10:51:25;;;;;;;1.20;1.10;;;22.70;67.40;;;;;;5114592;28;20941;-83
2022/09/26 10:53:58;;;;;;;2.07;1.70;;;22.80;67.50;;;;;;5114033;28;20500;-83
2022/09/26 10:56:29;;;;;;;1.00;0.90;;;22.70;67.50;;;;;;5094146;28;20435;-84
2022/09/26 10:59:00;;;;;;;1.00;0.80;;;22.70;67.40;;;;;;5094503;28;20883;-87
2022/09/26 11:01:30;;;;;;;1.87;1.10;;;22.80;67.60;;;;;;5094433;28;20436;-87
2022/09/26 11:04:10;;;;;;;1.40;1.23;;;22.70;67.70;;;;;;5094322;28;20440;-87
2022/09/26 11:06:42;;;;;;;0.90;0.80;;;22.70;68.00;;;;;;5094398;28;20435;-87
2022/09/26 11:09:10;;;;;;;1.00;0.90;;;22.70;68.00;;;;;;5094572;28;20813;-87
2022/09/26 11:11:39;;;;;;;1.10;0.87;;;22.80;68.00;;;;;;5094064;28;20442;-87
2022/09/26 11:14:07;;;;;;;2.33;1.03;;;22.70;67.90;;;;;;5094103;28;20440;-87
2022/09/26 11:16:50;;;;;;;3.70;1.60;;;22.70;68.10;;;;;;5094435;28;20841;-87
2022/09/26 11:19:30;;;;;;;1.97;1.23;;;22.70;67.90;;;;;;5093901;28;20488;-87
2022/09/26 11:22:03;;;;;;;1.63;1.47;;;22.70;67.80;;;;;;5094271;28;20797;-87
2022/09/26 11:24:36;;;;;;;1.73;1.07;;;22.70;68.00;;;;;;5094127;28;20822;-85
2022/09/26 11:27:11;;;;;;;4.30;1.27;;;22.70;68.00;;;;;;5095809;28;20432;-84
2022/09/26 11:29:46;;;;;;;1.80;1.10;;;22.70;68.00;;;;;;5093978;28;21010;-82
2022/09/26 11:32:17;;;;;;;1.73;1.13;;;22.70;68.20;;;;;;5099094;28;20443;-83
2022/09/26 11:34:45;;;;;;;2.70;1.00;;;22.90;68.20;;;;;;5114126;28;20443;-84
2022/09/26 11:37:35;;;;;;;2.43;1.47;;;22.90;68.00;;;;;;5111406;28;20438;-83
2022/09/26 11:40:20;;;;;;;3.13;1.00;;;22.80;67.90;;;;;;5113300;28;20490;-83
2022/09/26 11:43:02;;;;;;;6.90;2.57;;;22.80;67.90;;;;;;5114081;28;20439;-84
2022/09/26 11:45:36;;;;;;;13.87;6.73;;;22.80;68.00;;;;;;5114444;28;20446;-84
2022/09/26 11:48:16;;;;;;;26.50;12.80;;;22.70;67.90;;;;;;5113855;28;20439;-84
2022/09/26 11:50:56;;;;;;;33.40;13.53;;;22.80;68.10;;;;;;5114023;28;20443;-84
2022/09/26 11:54:08;;;;;;;22.93;10.03;;;22.80;68.50;;;;;;5113889;28;20465;-83
2022/09/26 11:56:57;;;;;;;24.07;8.97;;;22.80;68.50;;;;;;5104416;28;20450;-83
2022/09/26 11:59:38;;;;;;;16.37;8.10;;;22.80;68.80;;;;;;5112918;28;20476;-83
2022/09/26 12:02:22;;;;;;;19.00;8.23;;;22.80;69.00;;;;;;5114119;28;20857;-83
2022/09/26 12:05:02;;;;;;;16.77;8.33;;;22.80;69.20;;;;;;5113312;28;20435;-83
2022/09/26 12:07:37;;;;;;;18.97;7.63;;;22.80;69.30;;;;;;5114005;28;20438;-83
2022/09/26 12:10:25;;;;;;;19.23;8.23;;;22.80;69.40;;;;;;5112943;28;20960;-83
2022/09/26 12:13:11;;;;;;;18.80;7.27;;;22.90;69.40;;;;;;5113769;28;20526;-92
2022/09/26 12:16:08;;;;;;;12.50;5.83;;;22.80;69.30;;;;;;5096542;28;20442;-85
2022/09/26 12:18:45;;;;;;;17.10;6.87;;;23.00;69.90;;;;;;5114335;28;20462;-86
2022/09/26 12:21:28;;;;;;;14.03;5.50;;;22.90;69.70;;;;;;5113765;28;20998;-92
2022/09/26 12:24:05;;;;;;;12.90;4.60;;;22.90;69.40;;;;;;5114043;28;20470;-88
2022/09/26 12:26:39;;;;;;;11.50;4.90;;;22.90;69.30;;;;;;5113456;28;20945;-85
2022/09/26 12:29:17;;;;;;;10.30;3.80;;;23.00;69.30;;;;;;5113521;28;20441;-85
2022/09/26 12:32:03;;;;;;;8.10;4.27;;;23.00;70.10;;;;;;5113871;28;20419;-87
2022/09/26 12:34:54;;;;;;;6.63;4.00;;;22.80;68.90;;;;;;5113770;28;20917;-85
2022/09/26 12:38:06;;;;;;;7.00;3.70;;;22.80;68.80;;;;;;5113846;28;20545;-91
2022/09/26 12:40:44;;;;;;;8.90;3.70;;;22.80;68.80;;;;;;5113678;28;20482;-86
2022/09/26 12:43:30;;;;;;;9.23;4.20;;;22.80;68.80;;;;;;5113420;28;20447;-85
2022/09/26 12:46:40;;;;;;;2.87;2.57;;;22.80;68.90;;;;;;5112251;28;20962;-86
2022/09/26 12:49:43;;;;;;;5.70;3.13;;;22.80;68.80;;;;;;5049579;28;20851;-86
2022/09/26 12:52:22;;;;;;;4.13;3.07;;;22.80;68.80;;;;;;5051101;28;20483;-85
2022/09/26 12:55:09;;;;;;;4.93;2.80;;;22.80;68.80;;;;;;5098983;28;20430;-85
2022/09/26 12:57:45;;;;;;;3.60;2.43;;;22.80;68.80;;;;;;5116597;28;20430;-85
2022/09/26 13:00:17;;;;;;;6.23;2.90;;;22.80;68.80;;;;;;5113761;28;20466;-85
2022/09/26 13:03:15;;;;;;;4.63;2.77;;;22.80;68.80;;;;;;5096746;28;20475;-87
2022/09/26 13:06:11;;;;;;;3.27;2.53;;;22.80;68.80;;;;;;5096693;28;20443;-86
2022/09/26 13:08:51;;;;;;;4.97;2.37;;;22.80;68.80;;;;;;5103443;28;20529;-84
2022/09/26 13:11:27;;;;;;;4.20;2.30;;;22.80;68.90;;;;;;5116913;28;20876;-85
2022/09/26 13:14:14;;;;;;;4.73;3.10;;;22.80;68.90;;;;;;5116958;28;20849;-84
2022/09/26 13:16:55;;;;;;;3.17;2.47;;;22.80;68.90;;;;;;5117670;28;20518;-86
2022/09/26 13:19:29;;;;;;;4.77;2.00;;;22.80;68.90;;;;;;5116634;28;20524;-85
2022/09/26 13:22:01;;;;;;;8.00;2.40;;;22.80;68.90;;;;;;5120455;28;20446;-84
2022/09/26 13:24:34;;;;;;;5.60;2.87;;;22.80;69.00;;;;;;5142205;28;20461;-85
2022/09/26 13:27:11;;;;;;;3.37;2.20;;;22.80;69.00;;;;;;5142091;28;20439;-85
2022/09/26 13:29:42;;;;;;;3.67;2.23;;;22.80;69.00;;;;;;5141431;28;20501;-86